Mauston, WI (53948)

07:31 PM CDT die 27o March, anno 2017 (GMT -0500)
Juneau County Weather | | Change Station

Elev 873 ft 43.80 °N, 90.07 °W | Updated 5 seconds ago

Aequaliter Nubila
Aequaliter Nubila
44.6 °F
Feels Like 45 °F
N
2.5
Ventus Variabilis Ventus from Magis Aquilo quam Eurus
Gusts 3.6 mph

Hodie
High -- | Low -- °F
--% Chance of Precip.
Yesterday
High -- | Low -- °F
Precip. -- in
Pressio 29.98 in
Visibilitas 10.0 milia passuum
Clouds Aequaliter Nubila 1200 ft
Frigus Venti 45 °F
Frigus in quo Ros apparet 43 °F
Umor 95%
Rainfall 0.00 in
Snow Depth Not available.
6:50 AM 7:21 PM
Waning Crescent, 0% visible
METAR KVOK 272358Z 35004KT 10SM OVC012 07/05 A2995 RMK AO2A SLP151 50006
Pressio 29.98 in
Visibilitas 10.0 milia passuum
Clouds Aequaliter Nubila 1200 ft
Frigus Venti 45 °F
Frigus in quo Ros apparet 43 °F
Umor 95%
Rainfall 0.00 in
Snow Depth Not available.
6:50 AM 7:21 PM
Waning Crescent, 0% visible
METAR KVOK 272358Z 35004KT 10SM OVC012 07/05 A2995 RMK AO2A SLP151 50006

Get Severe Weather Alerts

Thanks for signing up!

Be on the lookout for a verification email in your inbox.

You'll start receiving the daily forecast at 8 AM.

×

10-Day Weather Forecast

Almanac

Astronomy

Mar. 27, 2017 Rise Set
Actual Time
Civil Twilight
Nautical Twilight
Astronomical Twilight
Moon
Length Of Visible Light
Length of Day
Tomorrow will be .
, % of the Moon is Illuminated

Today's Extremes

State Highs State Lows

Community

WunderPhotos

Upload Photos

1,962,540 photos uploaded!

WunderBlog® & News

Nearby

Air Quality

  Air Quality AQ Index Pollutant
Not available.

Snow Depth

Station Depth Elevation

Earthquake Activity

City Distance Mag. Time & Date
Minimum magnitude displayed is 2.5.

Earthquake Activity

City Distance Mag. Time & Date
Minimum magnitude displayed is 2.5.

Coastal Water Temperatures

Locus Calor

Stations

Nearby Weather Stations

Station Location Temp Frigus Venti Frigus in quo Ros apparet Umor Ventus Precip. Elev Renovata Type
                   

Watches & Warnings

There are currently no watches in effect.